createdAt,value
2022-10-30T00:01:41.541Z,15.69
2022-10-30T00:04:14.864Z,15.71
2022-10-30T00:06:48.090Z,15.71
2022-10-30T00:09:22.746Z,15.72
2022-10-30T00:11:55.935Z,15.73
2022-10-30T00:14:29.158Z,15.74
2022-10-30T00:17:02.345Z,15.75
2022-10-30T00:19:35.598Z,15.75
2022-10-30T00:24:42.225Z,15.72
2022-10-30T00:27:15.423Z,15.70
2022-10-30T00:29:48.978Z,15.70
2022-10-30T00:32:22.218Z,15.70
2022-10-30T00:34:55.898Z,15.71
2022-10-30T00:37:29.101Z,15.72
2022-10-30T00:40:03.796Z,15.70
2022-10-30T00:42:38.400Z,15.69
2022-10-30T00:45:12.997Z,15.67
2022-10-30T00:47:48.075Z,15.64
2022-10-30T00:50:22.999Z,15.62
2022-10-30T00:52:59.597Z,15.61
2022-10-30T00:55:35.658Z,15.61
2022-10-30T00:58:10.541Z,15.61
2022-10-30T01:00:46.073Z,15.62
2022-10-30T01:03:20.023Z,15.63
2022-10-30T01:05:55.260Z,15.63
2022-10-30T01:08:28.918Z,15.62
2022-10-30T01:11:04.029Z,15.62
2022-10-30T01:13:38.026Z,15.61
2022-10-30T01:16:19.122Z,15.59
2022-10-30T01:18:55.916Z,15.59
2022-10-30T01:21:37.373Z,15.58
2022-10-30T01:24:19.711Z,15.59
2022-10-30T01:27:06.386Z,15.61
2022-10-30T01:29:51.200Z,15.59
2022-10-30T01:32:41.022Z,15.59
2022-10-30T01:35:19.545Z,15.58
2022-10-30T01:37:56.617Z,15.58
2022-10-30T01:40:30.291Z,15.54
2022-10-30T01:43:05.135Z,15.49
2022-10-30T01:45:53.325Z,15.45
2022-10-30T01:48:46.349Z,15.47
2022-10-30T01:51:24.013Z,15.47
2022-10-30T01:54:01.687Z,15.46
2022-10-30T01:56:39.671Z,15.42
2022-10-30T01:59:17.172Z,15.40
2022-10-30T02:01:51.019Z,15.38
2022-10-30T02:04:24.840Z,15.37
2022-10-30T02:06:59.310Z,15.38
2022-10-30T02:09:33.001Z,15.38
2022-10-30T02:12:06.885Z,15.37
2022-10-30T02:14:43.249Z,15.36
2022-10-30T02:17:17.129Z,15.35
2022-10-30T02:19:50.416Z,15.34
2022-10-30T02:22:25.527Z,15.34
2022-10-30T02:24:58.773Z,15.33
2022-10-30T02:27:32.041Z,15.31
2022-10-30T02:30:05.736Z,15.31
2022-10-30T02:32:40.463Z,15.31
2022-10-30T02:35:13.737Z,15.30
2022-10-30T02:37:50.199Z,15.28
2022-10-30T02:40:23.429Z,15.28
2022-10-30T02:42:56.667Z,15.26
2022-10-30T02:45:29.877Z,15.27
2022-10-30T02:48:03.824Z,15.32
2022-10-30T02:50:38.281Z,15.37
2022-10-30T02:53:12.891Z,15.41
2022-10-30T02:55:46.196Z,15.43
2022-10-30T02:58:19.464Z,15.43
2022-10-30T03:00:52.737Z,15.44
2022-10-30T03:03:26.477Z,15.48
2022-10-30T03:06:01.363Z,15.51
2022-10-30T03:08:36.434Z,15.55
2022-10-30T03:11:13.194Z,15.58
2022-10-30T03:13:47.016Z,15.61
2022-10-30T03:16:21.443Z,15.62
2022-10-30T03:18:54.718Z,15.65
2022-10-30T03:21:28.976Z,15.66
2022-10-30T03:24:03.783Z,15.66
2022-10-30T03:26:37.023Z,15.67
2022-10-30T03:29:12.576Z,15.65
2022-10-30T03:31:45.824Z,15.66
2022-10-30T03:34:25.289Z,15.66
2022-10-30T03:36:58.588Z,15.65
2022-10-30T03:39:33.298Z,15.65
2022-10-30T03:42:06.683Z,15.66
2022-10-30T03:44:40.038Z,15.67
2022-10-30T03:47:14.747Z,15.67
2022-10-30T03:49:50.520Z,15.66
2022-10-30T03:52:26.531Z,15.66
2022-10-30T03:55:01.677Z,15.66
2022-10-30T03:57:37.632Z,15.65
2022-10-30T04:00:17.016Z,15.65
2022-10-30T04:03:01.731Z,15.67
2022-10-30T04:05:36.627Z,15.68
2022-10-30T04:08:13.426Z,15.69
2022-10-30T04:10:48.779Z,15.71
2022-10-30T04:13:22.080Z,15.70
2022-10-30T04:15:58.537Z,15.70
2022-10-30T04:18:32.739Z,15.69
2022-10-30T04:21:06.105Z,15.67
2022-10-30T04:23:41.455Z,15.67
2022-10-30T04:26:17.254Z,15.67
2022-10-30T04:28:51.963Z,15.65
2022-10-30T04:31:25.267Z,15.62
2022-10-30T04:33:58.602Z,15.61
2022-10-30T04:36:34.113Z,15.60
2022-10-30T04:39:07.414Z,15.59
2022-10-30T04:41:42.778Z,15.57
2022-10-30T04:44:22.641Z,15.55
2022-10-30T04:47:00.207Z,15.54
2022-10-30T04:49:33.454Z,15.52
2022-10-30T04:52:07.052Z,15.50
2022-10-30T04:54:40.427Z,15.43
2022-10-30T04:57:15.067Z,15.39
2022-10-30T04:59:49.508Z,15.35
2022-10-30T05:02:22.887Z,15.29
2022-10-30T05:04:56.315Z,15.24
2022-10-30T05:07:29.519Z,15.21
2022-10-30T05:10:04.019Z,15.19
2022-10-30T05:12:38.694Z,15.21
2022-10-30T05:15:12.353Z,15.23
2022-10-30T05:17:45.823Z,15.25
2022-10-30T05:20:19.425Z,15.26
2022-10-30T05:22:56.179Z,15.28
2022-10-30T05:25:29.657Z,15.29
2022-10-30T05:28:08.007Z,15.29
2022-10-30T05:30:48.292Z,15.30
2022-10-30T05:33:41.050Z,15.29
2022-10-30T05:36:14.676Z,15.30
2022-10-30T05:38:48.877Z,15.31
2022-10-30T05:41:32.360Z,15.32
2022-10-30T05:44:07.450Z,15.32
2022-10-30T05:46:41.021Z,15.32
2022-10-30T05:49:34.464Z,15.33
2022-10-30T05:52:10.419Z,15.34
2022-10-30T05:54:43.919Z,15.34
2022-10-30T05:57:44.017Z,15.34
2022-10-30T06:00:19.062Z,15.34
2022-10-30T06:02:57.330Z,15.35
2022-10-30T06:05:31.873Z,15.36
2022-10-30T06:08:08.950Z,15.37
2022-10-30T06:10:42.290Z,15.34
2022-10-30T06:13:25.096Z,15.32
2022-10-30T06:16:12.500Z,15.31
2022-10-30T06:19:23.937Z,15.30
2022-10-30T06:21:59.292Z,15.35
2022-10-30T06:24:52.464Z,15.39
2022-10-30T06:27:44.169Z,15.40
2022-10-30T06:30:19.438Z,15.41
2022-10-30T06:32:57.309Z,15.42
2022-10-30T06:35:30.864Z,15.44
2022-10-30T06:38:04.931Z,15.44
2022-10-30T06:40:39.628Z,15.44
2022-10-30T06:43:24.492Z,15.42
2022-10-30T06:46:13.756Z,15.39
2022-10-30T06:48:50.824Z,15.39
2022-10-30T06:51:24.902Z,15.39
2022-10-30T06:54:00.201Z,15.39
2022-10-30T06:56:45.481Z,15.40
2022-10-30T06:59:44.208Z,15.38
2022-10-30T07:02:46.417Z,15.36
2022-10-30T07:05:21.473Z,15.35
2022-10-30T07:07:56.903Z,15.36
2022-10-30T07:10:30.510Z,15.39
2022-10-30T07:13:27.120Z,15.42
2022-10-30T07:16:05.627Z,15.48
2022-10-30T07:18:43.369Z,15.52
2022-10-30T07:21:18.072Z,15.53
2022-10-30T07:23:51.495Z,15.56
2022-10-30T07:26:50.649Z,15.57
2022-10-30T07:29:36.681Z,15.61
2022-10-30T07:32:36.206Z,15.67
2022-10-30T07:35:39.493Z,15.69
2022-10-30T07:38:45.131Z,15.70
2022-10-30T07:41:31.183Z,15.73
2022-10-30T07:44:24.819Z,15.77
2022-10-30T07:47:16.444Z,15.82
2022-10-30T07:50:12.658Z,15.91
2022-10-30T07:52:46.250Z,16.01
2022-10-30T07:55:20.851Z,16.08
2022-10-30T07:57:54.000Z,16.14
2022-10-30T08:01:03.733Z,16.21
2022-10-30T08:03:39.614Z,16.27
2022-10-30T08:06:21.645Z,16.36
2022-10-30T08:08:58.309Z,16.41
2022-10-30T08:11:36.644Z,16.44
2022-10-30T08:14:10.779Z,16.47
2022-10-30T08:16:44.072Z,16.50
2022-10-30T08:19:17.409Z,16.58
2022-10-30T08:21:51.769Z,16.69
2022-10-30T08:24:27.191Z,16.82
2022-10-30T08:27:05.729Z,16.96
2022-10-30T08:29:39.054Z,17.15
2022-10-30T08:32:12.510Z,17.41
2022-10-30T08:35:24.089Z,17.65
2022-10-30T08:37:57.800Z,17.77
2022-10-30T08:40:31.510Z,18.03
2022-10-30T08:43:14.670Z,18.57
2022-10-30T08:45:48.930Z,19.23
2022-10-30T08:48:25.834Z,19.59
2022-10-30T08:51:01.472Z,19.86
2022-10-30T08:53:40.976Z,19.95
2022-10-30T08:56:18.707Z,19.96
2022-10-30T08:59:20.243Z,19.92
2022-10-30T09:01:55.915Z,19.79
2022-10-30T09:04:47.859Z,19.59
2022-10-30T09:07:41.218Z,19.36
2022-10-30T09:10:34.360Z,19.13
2022-10-30T09:13:07.644Z,18.95
2022-10-30T09:15:42.655Z,18.77
2022-10-30T09:18:17.072Z,18.58
2022-10-30T09:20:50.865Z,18.39
2022-10-30T09:23:25.047Z,18.31
2022-10-30T09:26:06.820Z,18.23
2022-10-30T09:28:54.612Z,18.10
2022-10-30T09:31:56.832Z,18.13
2022-10-30T09:34:32.565Z,18.25
2022-10-30T09:37:19.602Z,18.38
2022-10-30T09:39:57.571Z,18.45
2022-10-30T09:42:44.517Z,18.45
2022-10-30T09:45:30.031Z,18.39
2022-10-30T09:48:12.707Z,18.37
2022-10-30T09:51:09.799Z,18.36
2022-10-30T09:53:51.023Z,18.34
2022-10-30T09:56:33.652Z,18.26
2022-10-30T09:59:18.304Z,18.18
2022-10-30T10:01:55.499Z,18.13
2022-10-30T10:04:35.837Z,18.06
2022-10-30T10:07:31.849Z,17.97
2022-10-30T10:10:23.466Z,17.89
2022-10-30T10:13:01.863Z,17.82
2022-10-30T10:15:39.188Z,17.75
2022-10-30T10:18:26.120Z,17.73
2022-10-30T10:21:03.470Z,17.69
2022-10-30T10:23:40.767Z,17.65
2022-10-30T10:26:20.021Z,17.59
2022-10-30T10:28:58.381Z,17.59
2022-10-30T10:31:38.296Z,17.65
2022-10-30T10:34:19.377Z,17.48
2022-10-30T10:36:58.823Z,17.27
2022-10-30T10:39:38.818Z,17.22
2022-10-30T10:42:17.550Z,17.24
2022-10-30T10:44:54.223Z,17.37
2022-10-30T10:47:37.560Z,17.59
2022-10-30T10:50:20.007Z,17.85
2022-10-30T10:52:55.731Z,18.10
2022-10-30T10:55:30.131Z,18.43
2022-10-30T10:58:07.713Z,18.69
2022-10-30T11:00:45.183Z,18.90
2022-10-30T11:03:21.958Z,19.09
2022-10-30T11:05:58.122Z,19.21
2022-10-30T11:08:35.212Z,19.29
2022-10-30T11:11:08.894Z,19.36
2022-10-30T11:13:43.559Z,19.37
2022-10-30T11:16:23.095Z,19.46
2022-10-30T11:19:01.107Z,19.63
2022-10-30T11:21:36.892Z,19.92
2022-10-30T11:24:27.354Z,20.11
2022-10-30T11:27:19.286Z,20.30
2022-10-30T11:29:54.397Z,20.43
2022-10-30T11:32:28.404Z,20.44
2022-10-30T11:35:03.343Z,20.47
2022-10-30T11:37:39.646Z,20.58
2022-10-30T11:40:21.192Z,20.66
2022-10-30T11:42:58.108Z,20.70
2022-10-30T11:45:32.183Z,20.82
2022-10-30T11:48:13.786Z,20.92
2022-10-30T11:50:48.804Z,20.90
2022-10-30T11:53:24.100Z,20.82
2022-10-30T11:55:59.142Z,20.80
2022-10-30T11:58:33.251Z,20.76
2022-10-30T12:01:09.669Z,20.74
2022-10-30T12:03:43.478Z,20.68
2022-10-30T12:06:19.757Z,20.59
2022-10-30T12:08:59.772Z,20.48
2022-10-30T12:11:35.040Z,20.54
2022-10-30T12:14:07.650Z,20.79
2022-10-30T12:16:45.602Z,20.97
2022-10-30T12:19:19.145Z,20.94
2022-10-30T12:21:53.502Z,20.88
2022-10-30T12:24:30.066Z,20.81
2022-10-30T12:27:05.380Z,20.72
2022-10-30T12:30:06.853Z,20.68
2022-10-30T12:32:39.693Z,20.70
2022-10-30T12:35:35.384Z,20.74
2022-10-30T12:38:11.845Z,20.87
2022-10-30T12:40:47.914Z,21.09
2022-10-30T12:43:24.419Z,21.10
2022-10-30T12:46:02.348Z,21.07
2022-10-30T12:48:37.712Z,20.99
2022-10-30T12:51:17.171Z,20.86
2022-10-30T12:53:58.524Z,20.72
2022-10-30T12:56:33.191Z,20.62
2022-10-30T12:59:18.914Z,20.56
2022-10-30T13:01:56.636Z,20.60
2022-10-30T13:04:32.219Z,20.66
2022-10-30T13:07:09.460Z,20.66
2022-10-30T13:09:44.661Z,20.68
2022-10-30T13:12:20.546Z,20.77
2022-10-30T13:14:56.290Z,20.79
2022-10-30T13:17:29.585Z,20.84
2022-10-30T13:20:02.000Z,20.78
2022-10-30T13:22:41.124Z,20.70
2022-10-30T13:25:17.849Z,20.66
2022-10-30T13:27:53.302Z,20.61
2022-10-30T13:30:29.798Z,20.60
2022-10-30T13:33:08.320Z,20.61
2022-10-30T13:35:45.059Z,20.65
2022-10-30T13:38:28.789Z,20.62
2022-10-30T13:41:05.563Z,20.59
2022-10-30T13:43:42.964Z,20.55
2022-10-30T13:46:26.755Z,20.43
2022-10-30T13:49:05.070Z,20.27
2022-10-30T13:51:41.064Z,20.15
2022-10-30T13:54:19.851Z,20.05
2022-10-30T13:56:53.741Z,19.92
2022-10-30T13:59:33.799Z,19.83
2022-10-30T14:02:14.581Z,19.72
2022-10-30T14:04:53.591Z,19.64
2022-10-30T14:07:32.149Z,19.55
2022-10-30T14:10:09.618Z,19.45
2022-10-30T14:12:46.087Z,19.37
2022-10-30T14:15:21.366Z,19.28
2022-10-30T14:18:12.589Z,19.21
2022-10-30T14:20:50.929Z,19.14
2022-10-30T14:23:24.817Z,19.09
2022-10-30T14:26:13.617Z,19.05
2022-10-30T14:28:46.341Z,19.00
2022-10-30T14:31:20.389Z,18.95
2022-10-30T14:33:53.619Z,18.91
2022-10-30T14:36:47.482Z,18.82
2022-10-30T14:39:28.320Z,18.75
2022-10-30T14:42:03.701Z,18.72
2022-10-30T14:44:44.138Z,18.70
2022-10-30T14:47:33.585Z,18.69
2022-10-30T14:50:15.276Z,18.64
2022-10-30T14:52:57.714Z,18.61
2022-10-30T14:55:32.746Z,18.59
2022-10-30T14:58:20.349Z,18.56
2022-10-30T15:00:56.830Z,18.52
2022-10-30T15:03:40.708Z,18.50
2022-10-30T15:06:21.832Z,18.45
2022-10-30T15:09:07.016Z,18.40
2022-10-30T15:11:50.600Z,18.37
2022-10-30T15:14:48.801Z,18.31
2022-10-30T15:17:27.734Z,18.26
2022-10-30T15:20:01.963Z,18.19
2022-10-30T15:22:38.935Z,18.12
2022-10-30T15:25:19.316Z,18.04
2022-10-30T15:27:53.523Z,17.96
2022-10-30T15:30:27.080Z,17.92
2022-10-30T15:32:59.805Z,17.89
2022-10-30T15:35:32.665Z,17.85
2022-10-30T15:38:13.203Z,17.81
2022-10-30T15:40:53.065Z,17.76
2022-10-30T15:43:30.029Z,17.71
2022-10-30T15:46:03.728Z,17.65
2022-10-30T15:48:36.788Z,17.61
2022-10-30T15:51:13.235Z,17.56
2022-10-30T15:53:47.574Z,17.53
2022-10-30T15:56:24.910Z,17.50
2022-10-30T15:58:59.784Z,17.47
2022-10-30T16:01:33.316Z,17.43
2022-10-30T16:04:14.747Z,17.39
2022-10-30T16:06:51.165Z,17.34
2022-10-30T16:09:24.565Z,17.28
2022-10-30T16:12:00.299Z,17.22
2022-10-30T16:14:34.211Z,17.17
2022-10-30T16:17:06.876Z,17.14
2022-10-30T16:19:42.849Z,17.09
2022-10-30T16:22:16.317Z,17.05
2022-10-30T16:24:50.867Z,17.01
2022-10-30T16:27:25.671Z,16.96
2022-10-30T16:29:59.519Z,16.92
2022-10-30T16:32:34.245Z,16.86
2022-10-30T16:35:08.604Z,16.80
2022-10-30T16:37:43.443Z,16.73
2022-10-30T16:40:18.406Z,16.68
2022-10-30T16:42:54.877Z,16.61
2022-10-30T16:45:47.785Z,16.53
2022-10-30T16:48:27.284Z,16.46
2022-10-30T16:51:03.942Z,16.41
2022-10-30T16:53:36.590Z,16.36
2022-10-30T16:56:19.204Z,16.30
2022-10-30T16:58:53.765Z,16.25
2022-10-30T17:01:27.341Z,16.20
2022-10-30T17:04:00.504Z,16.18
2022-10-30T17:06:39.941Z,16.15
2022-10-30T17:09:25.458Z,16.13
2022-10-30T17:12:05.947Z,16.10
2022-10-30T17:14:48.177Z,16.07
2022-10-30T17:17:24.933Z,16.04
2022-10-30T17:20:06.985Z,16.03
2022-10-30T17:22:43.252Z,15.98
2022-10-30T17:25:17.192Z,15.94
2022-10-30T17:27:50.268Z,15.90
2022-10-30T17:30:39.834Z,15.85
2022-10-30T17:33:39.289Z,15.82
2022-10-30T17:36:12.002Z,15.77
2022-10-30T17:38:44.626Z,15.73
2022-10-30T17:41:17.547Z,15.69
2022-10-30T17:43:54.515Z,15.64
2022-10-30T17:46:28.541Z,15.60
2022-10-30T17:49:01.500Z,15.56
2022-10-30T17:51:34.102Z,15.51
2022-10-30T17:54:10.991Z,15.47
2022-10-30T17:56:43.552Z,15.41
2022-10-30T17:59:16.466Z,15.37
2022-10-30T18:01:50.351Z,15.34
2022-10-30T18:04:23.010Z,15.31
2022-10-30T18:06:55.554Z,15.29
2022-10-30T18:09:28.113Z,15.26
2022-10-30T18:12:01.018Z,15.22
2022-10-30T18:14:33.965Z,15.20
2022-10-30T18:17:10.266Z,15.17
2022-10-30T18:19:42.833Z,15.13
2022-10-30T18:22:15.541Z,15.10
2022-10-30T18:24:48.055Z,15.06
2022-10-30T18:27:20.570Z,15.03
2022-10-30T18:29:53.013Z,15.00
2022-10-30T18:32:26.838Z,14.99
2022-10-30T18:34:59.803Z,14.97
2022-10-30T18:37:32.242Z,14.95
2022-10-30T18:40:06.819Z,14.94
2022-10-30T18:42:39.404Z,14.92
2022-10-30T18:45:18.984Z,14.91
2022-10-30T18:47:53.409Z,14.89
2022-10-30T18:50:25.980Z,14.87
2022-10-30T18:52:58.979Z,14.84
2022-10-30T18:55:33.700Z,14.81
2022-10-30T18:58:06.859Z,14.76
2022-10-30T19:01:09.898Z,14.70
2022-10-30T19:03:34.027Z,14.65
2022-10-30T19:06:07.376Z,14.41
2022-10-30T19:08:39.850Z,14.19
2022-10-30T19:11:12.954Z,14.04
2022-10-30T19:13:46.513Z,13.96
2022-10-30T19:16:20.180Z,13.86
2022-10-30T19:18:54.180Z,13.74
2022-10-30T19:21:27.983Z,13.65
2022-10-30T19:24:02.169Z,13.57
2022-10-30T19:26:34.909Z,13.58
2022-10-30T19:29:10.230Z,13.60
2022-10-30T19:31:42.982Z,13.59
2022-10-30T19:34:17.046Z,13.67
2022-10-30T19:36:49.505Z,13.75
2022-10-30T19:39:22.022Z,13.83
2022-10-30T19:41:55.044Z,13.90
2022-10-30T19:44:28.337Z,13.94
2022-10-30T19:47:04.227Z,13.99
2022-10-30T19:49:39.237Z,14.04
2022-10-30T19:52:12.690Z,14.06
2022-10-30T19:54:46.071Z,14.10
2022-10-30T19:57:19.268Z,14.11
2022-10-30T19:59:52.578Z,14.13
2022-10-30T20:02:25.885Z,14.16
2022-10-30T20:05:00.598Z,14.18
2022-10-30T20:07:33.969Z,14.17
2022-10-30T20:10:14.960Z,14.17
2022-10-30T20:12:48.582Z,14.13
2022-10-30T20:15:24.685Z,14.10
2022-10-30T20:17:58.280Z,14.08
2022-10-30T20:20:34.476Z,14.07
2022-10-30T20:23:07.873Z,14.06
2022-10-30T20:25:41.298Z,14.05
2022-10-30T20:28:19.823Z,14.06
2022-10-30T20:30:54.974Z,14.04
2022-10-30T20:33:28.472Z,14.02
2022-10-30T20:36:03.382Z,14.00
2022-10-30T20:38:36.709Z,13.98
2022-10-30T20:41:22.721Z,13.96
2022-10-30T20:43:56.243Z,13.94
2022-10-30T20:46:29.420Z,13.91
2022-10-30T20:49:16.783Z,13.88
2022-10-30T20:51:52.891Z,13.86
2022-10-30T20:54:31.061Z,13.83
2022-10-30T20:57:06.072Z,13.80
2022-10-30T20:59:39.427Z,13.77
2022-10-30T21:02:13.180Z,13.75
2022-10-30T21:04:46.571Z,13.71
2022-10-30T21:07:21.369Z,13.68
2022-10-30T21:09:54.617Z,13.65
2022-10-30T21:12:27.959Z,13.60
2022-10-30T21:15:02.897Z,13.57
2022-10-30T21:17:36.354Z,13.53
2022-10-30T21:20:10.136Z,13.51
2022-10-30T21:22:44.729Z,13.48
2022-10-30T21:25:17.922Z,13.46
2022-10-30T21:27:51.073Z,13.42
2022-10-30T21:30:24.261Z,13.39
2022-10-30T21:32:57.839Z,13.35
2022-10-30T21:35:31.245Z,13.33
2022-10-30T21:38:05.807Z,13.32
2022-10-30T21:40:40.823Z,13.27
2022-10-30T21:43:13.900Z,13.23
2022-10-30T21:45:47.092Z,13.20
2022-10-30T21:48:20.418Z,13.13
2022-10-30T21:50:53.533Z,13.07
2022-10-30T21:53:28.261Z,13.06
2022-10-30T21:56:06.983Z,13.04
2022-10-30T21:58:40.482Z,13.00
2022-10-30T22:01:16.191Z,12.99
2022-10-30T22:03:49.741Z,12.97
2022-10-30T22:06:28.346Z,12.91
2022-10-30T22:09:02.870Z,12.87
2022-10-30T22:11:36.365Z,12.83
2022-10-30T22:14:09.630Z,12.79
2022-10-30T22:16:42.931Z,12.79
2022-10-30T22:19:16.081Z,12.78
2022-10-30T22:21:51.334Z,12.78
2022-10-30T22:24:25.848Z,12.75
2022-10-30T22:27:01.973Z,12.71
2022-10-30T22:29:35.376Z,12.67
2022-10-30T22:32:08.576Z,12.63
2022-10-30T22:34:41.692Z,12.61
2022-10-30T22:37:15.009Z,12.56
2022-10-30T22:39:51.892Z,12.53
2022-10-30T22:42:25.152Z,12.51
2022-10-30T22:44:58.327Z,12.49
2022-10-30T22:47:31.430Z,12.49
2022-10-30T22:50:04.724Z,12.49
2022-10-30T22:52:40.126Z,12.47
2022-10-30T22:55:14.693Z,12.43
2022-10-30T22:57:47.820Z,12.42
2022-10-30T23:00:25.317Z,12.40
2022-10-30T23:02:58.965Z,12.38
2022-10-30T23:05:32.410Z,12.38
2022-10-30T23:08:06.069Z,12.36
2022-10-30T23:10:43.225Z,12.37
2022-10-30T23:15:56.280Z,12.36
2022-10-30T23:18:32.523Z,12.35
2022-10-30T23:21:09.446Z,12.37
2022-10-30T23:23:45.308Z,12.35
2022-10-30T23:26:21.512Z,12.34
2022-10-30T23:28:58.886Z,12.34
2022-10-30T23:31:33.761Z,12.34
2022-10-30T23:34:08.041Z,12.32
2022-10-30T23:36:41.902Z,12.31
2022-10-30T23:39:16.657Z,12.30
2022-10-30T23:41:51.220Z,12.28
2022-10-30T23:44:24.348Z,12.25
2022-10-30T23:46:57.990Z,12.22
2022-10-30T23:49:34.041Z,12.20
2022-10-30T23:52:07.567Z,12.15
2022-10-30T23:54:40.644Z,12.13
2022-10-30T23:57:15.240Z,12.12
2022-10-30T23:59:52.750Z,12.12
